createdAt,value
2019-05-13T00:00:46.754Z,103442.48
2019-05-13T00:01:54.261Z,103449.76
2019-05-13T00:03:03.356Z,103449.14
2019-05-13T00:04:10.198Z,103446.89
2019-05-13T00:05:16.942Z,103453.31
2019-05-13T00:06:24.596Z,103450.39
2019-05-13T00:07:31.401Z,103449.03
2019-05-13T00:08:38.902Z,103447.92
2019-05-13T00:09:45.668Z,103451.62
2019-05-13T00:10:54.165Z,103450.44
2019-05-13T00:12:04.383Z,103451.31
2019-05-13T00:13:11.687Z,103456.56
2019-05-13T00:14:18.431Z,103453.04
2019-05-13T00:15:25.925Z,103450.84
2019-05-13T00:16:34.129Z,103450.37
2019-05-13T00:17:44.327Z,103450.34
2019-05-13T00:18:50.433Z,103450.63
2019-05-13T00:19:57.923Z,103452.33
2019-05-13T00:21:04.725Z,103448.23
2019-05-13T00:22:14.066Z,103450.83
2019-05-13T00:23:23.240Z,103452.45
2019-05-13T00:24:30.652Z,103453.61
2019-05-13T00:25:37.550Z,103454.56
2019-05-13T00:26:45.421Z,103455.19
2019-05-13T00:27:53.687Z,103453.86
2019-05-13T00:29:04.069Z,103452.88
2019-05-13T00:30:10.951Z,103451.31
2019-05-13T00:31:18.498Z,103449.75
2019-05-13T00:32:25.316Z,103451.88
2019-05-13T00:33:33.811Z,103453.44
2019-05-13T00:34:41.429Z,103452.64
2019-05-13T00:35:49.007Z,103456.81
2019-05-13T00:37:07.767Z,103458.67
2019-05-13T00:38:05.537Z,103448.88
2019-05-13T00:39:12.606Z,103454.83
2019-05-13T00:40:20.147Z,103452.47
2019-05-13T00:41:27.269Z,103452.03
2019-05-13T00:42:34.865Z,103452.53
2019-05-13T00:43:44.269Z,103451.33
2019-05-13T00:44:53.237Z,103451.20
2019-05-13T00:46:00.299Z,103458.95
2019-05-13T00:47:07.799Z,103457.77
2019-05-13T00:48:14.856Z,103451.92
2019-05-13T00:49:23.881Z,103457.98
2019-05-13T00:50:33.043Z,103460.45
2019-05-13T00:51:40.633Z,103452.83
2019-05-13T00:52:47.933Z,103451.47
2019-05-13T00:53:55.698Z,103452.63
2019-05-13T00:55:04.263Z,103456.98
2019-05-13T00:56:13.375Z,103456.44
2019-05-13T00:57:20.609Z,103453.45
2019-05-13T00:58:28.395Z,103447.89
2019-05-13T00:59:35.587Z,103450.43
2019-05-13T01:00:44.364Z,103448.65
2019-05-13T01:01:53.315Z,103447.09
2019-05-13T01:03:00.946Z,103444.77
2019-05-13T01:04:07.747Z,103441.75
2019-05-13T01:05:15.678Z,103443.50
2019-05-13T01:06:23.689Z,103444.84
2019-05-13T01:07:34.008Z,103445.70
2019-05-13T01:08:39.750Z,103449.06
2019-05-13T01:09:47.318Z,103446.97
2019-05-13T01:10:54.059Z,103443.41
2019-05-13T01:12:04.106Z,103446.17
2019-05-13T01:13:10.322Z,103453.73
2019-05-13T01:14:17.906Z,103454.57
2019-05-13T01:15:24.835Z,103450.21
2019-05-13T01:16:34.085Z,103452.69
2019-05-13T01:17:41.027Z,103457.14
2019-05-13T01:18:48.510Z,103455.65
2019-05-13T01:19:55.250Z,103455.71
2019-05-13T01:21:04.434Z,103456.85
2019-05-13T01:22:13.359Z,103457.96
2019-05-13T01:23:20.596Z,103458.34
2019-05-13T01:24:27.845Z,103463.64
2019-05-13T01:25:36.089Z,103464.17
2019-05-13T01:26:43.773Z,103465.53
2019-05-13T01:27:53.617Z,103465.44
2019-05-13T01:29:00.292Z,103460.01
2019-05-13T01:30:09.226Z,103460.16
2019-05-13T01:31:15.977Z,103464.61
2019-05-13T01:32:24.056Z,103459.44
2019-05-13T01:33:30.827Z,103455.08
2019-05-13T01:34:38.758Z,103456.11
2019-05-13T01:35:45.698Z,103455.91
2019-05-13T01:36:53.716Z,103454.20
2019-05-13T01:38:00.462Z,103458.22
2019-05-13T01:39:09.449Z,103455.03
2019-05-13T01:40:16.942Z,103450.88
2019-05-13T01:41:24.842Z,103456.70
2019-05-13T01:42:33.665Z,103457.36
2019-05-13T01:43:43.951Z,103460.31
2019-05-13T01:44:50.644Z,103461.03
2019-05-13T01:45:58.493Z,103456.47
2019-05-13T01:47:05.409Z,103463.02
2019-05-13T01:48:14.097Z,103456.87
2019-05-13T01:49:21.301Z,103458.39
2019-05-13T01:50:28.799Z,103463.40
2019-05-13T01:51:35.766Z,103460.61
2019-05-13T01:52:44.537Z,103467.23
2019-05-13T01:53:53.467Z,103465.11
2019-05-13T01:55:00.995Z,103461.30
2019-05-13T01:56:07.744Z,103469.91
2019-05-13T01:57:15.274Z,103466.89
2019-05-13T01:58:23.542Z,103468.44
2019-05-13T01:59:31.284Z,103467.44
2019-05-13T02:00:38.456Z,103466.79
2019-05-13T02:01:46.017Z,103471.91
2019-05-13T02:02:54.499Z,103466.89
2019-05-13T02:04:04.028Z,103472.56
2019-05-13T02:05:13.803Z,103464.91
2019-05-13T02:06:20.880Z,103466.03
2019-05-13T02:07:27.995Z,103462.16
2019-05-13T02:08:35.543Z,103465.83
2019-05-13T02:09:44.315Z,103465.97
2019-05-13T02:10:55.944Z,103463.77
2019-05-13T02:12:04.895Z,103467.23
2019-05-13T02:13:14.629Z,103465.17
2019-05-13T02:14:20.921Z,103470.43
2019-05-13T02:15:28.402Z,103468.64
2019-05-13T02:16:35.583Z,103470.02
2019-05-13T02:17:44.667Z,103473.72
2019-05-13T02:18:53.659Z,103471.56
2019-05-13T02:20:03.972Z,103477.80
2019-05-13T02:21:10.456Z,103476.98
2019-05-13T02:22:17.962Z,103478.14
2019-05-13T02:23:24.736Z,103471.66
2019-05-13T02:24:34.196Z,103479.61
2019-05-13T02:25:43.440Z,103476.41
2019-05-13T02:26:51.253Z,103475.34
2019-05-13T02:27:58.097Z,103471.32
2019-05-13T02:29:06.030Z,103477.08
2019-05-13T02:30:16.106Z,103476.22
2019-05-13T02:31:34.996Z,103476.93
2019-05-13T02:32:32.898Z,103474.80
2019-05-13T02:33:42.344Z,103476.00
2019-05-13T02:34:49.370Z,103477.61
2019-05-13T02:35:56.888Z,103478.99
2019-05-13T02:37:04.415Z,103477.95
2019-05-13T02:38:23.577Z,103478.95
2019-05-13T02:39:22.325Z,103483.23
2019-05-13T02:40:32.474Z,103481.66
2019-05-13T02:41:38.729Z,103483.23
2019-05-13T02:42:46.631Z,103474.39
2019-05-13T02:43:53.722Z,103479.88
2019-05-13T02:45:03.692Z,103476.67
2019-05-13T02:46:12.841Z,103475.08
2019-05-13T02:47:22.402Z,103479.00
2019-05-13T02:48:27.989Z,103475.72
2019-05-13T02:49:35.689Z,103473.33
2019-05-13T02:50:44.202Z,103478.11
2019-05-13T02:51:54.738Z,103481.88
2019-05-13T02:53:02.468Z,103484.52
2019-05-13T02:54:12.415Z,103484.75
2019-05-13T02:55:18.693Z,103480.27
2019-05-13T02:56:26.401Z,103481.05
2019-05-13T02:57:35.830Z,103480.87
2019-05-13T02:58:43.329Z,103485.53
2019-05-13T02:59:52.664Z,103487.14
2019-05-13T03:01:02.838Z,103482.39
2019-05-13T03:02:08.467Z,103483.92
2019-05-13T03:03:16.019Z,103480.13
2019-05-13T03:04:23.457Z,103480.91
2019-05-13T03:05:32.054Z,103487.20
2019-05-13T03:06:38.981Z,103487.81
2019-05-13T03:07:46.641Z,103488.22
2019-05-13T03:08:54.756Z,103481.47
2019-05-13T03:10:04.146Z,103479.78
2019-05-13T03:11:12.648Z,103477.84
2019-05-13T03:12:23.057Z,103482.92
2019-05-13T03:13:32.768Z,103484.52
2019-05-13T03:14:38.881Z,103484.37
2019-05-13T03:15:55.876Z,103485.64
2019-05-13T03:17:22.575Z,103485.05
2019-05-13T03:18:33.133Z,103478.93
2019-05-13T03:19:39.443Z,103482.28
2019-05-13T03:20:46.746Z,103477.39
2019-05-13T03:21:54.280Z,103482.39
2019-05-13T03:23:02.990Z,103481.34
2019-05-13T03:24:13.331Z,103482.69
2019-05-13T03:25:22.744Z,103489.37
2019-05-13T03:26:32.035Z,103486.12
2019-05-13T03:27:37.820Z,103487.28
2019-05-13T03:28:45.543Z,103485.08
2019-05-13T03:29:53.313Z,103490.53
2019-05-13T03:31:06.742Z,103493.67
2019-05-13T03:32:15.418Z,103501.61
2019-05-13T03:33:21.932Z,103494.59
2019-05-13T03:34:27.772Z,103499.74
2019-05-13T03:35:37.263Z,103496.34
2019-05-13T03:36:46.377Z,103507.02
2019-05-13T03:37:55.096Z,103504.74
2019-05-13T03:39:10.533Z,103507.35
2019-05-13T03:40:14.023Z,103507.02
2019-05-13T03:41:22.839Z,103505.75
2019-05-13T03:42:33.937Z,103506.16
2019-05-13T03:43:43.462Z,103507.09
2019-05-13T03:44:55.871Z,103505.08
2019-05-13T03:46:04.701Z,103510.16
2019-05-13T03:47:14.329Z,103504.70
2019-05-13T03:48:25.783Z,103514.19
2019-05-13T03:49:37.533Z,103509.78
2019-05-13T03:50:44.304Z,103515.56
2019-05-13T03:51:53.817Z,103507.77
2019-05-13T03:53:03.025Z,103510.49
2019-05-13T03:54:12.911Z,103505.91
2019-05-13T03:55:23.165Z,103513.44
2019-05-13T03:56:32.614Z,103514.19
2019-05-13T03:57:38.778Z,103514.00
2019-05-13T03:58:47.055Z,103515.98
2019-05-13T03:59:54.301Z,103515.12
2019-05-13T04:01:02.794Z,103517.91
2019-05-13T04:02:12.953Z,103514.11
2019-05-13T04:03:22.789Z,103518.44
2019-05-13T04:04:32.163Z,103519.70
2019-05-13T04:05:38.169Z,103516.80
2019-05-13T04:06:44.985Z,103522.88
2019-05-13T04:07:52.835Z,103515.64
2019-05-13T04:09:17.166Z,103516.98
2019-05-13T04:10:12.936Z,103522.14
2019-05-13T04:11:21.878Z,103520.27
2019-05-13T04:12:28.747Z,103517.20
2019-05-13T04:13:35.723Z,103518.02
2019-05-13T04:14:43.918Z,103519.77
2019-05-13T04:15:53.068Z,103516.50
2019-05-13T04:17:02.948Z,103518.68
2019-05-13T04:18:12.281Z,103516.41
2019-05-13T04:19:18.824Z,103522.52
2019-05-13T04:20:25.802Z,103520.91
2019-05-13T04:21:33.944Z,103526.78
2019-05-13T04:22:42.563Z,103522.86
2019-05-13T04:23:53.034Z,103524.61
2019-05-13T04:25:02.492Z,103522.28
2019-05-13T04:26:14.231Z,103520.11
2019-05-13T04:27:19.139Z,103525.35
2019-05-13T04:28:26.687Z,103527.31
2019-05-13T04:29:33.893Z,103528.80
2019-05-13T04:30:43.617Z,103528.92
2019-05-13T04:31:53.244Z,103529.45
2019-05-13T04:33:02.433Z,103530.31
2019-05-13T04:34:12.107Z,103532.61
2019-05-13T04:35:18.782Z,103536.34
2019-05-13T04:36:25.608Z,103532.59
2019-05-13T04:37:33.579Z,103532.29
2019-05-13T04:38:43.747Z,103532.63
2019-05-13T04:39:54.933Z,103533.74
2019-05-13T04:40:58.553Z,103536.78
2019-05-13T04:42:06.209Z,103536.38
2019-05-13T04:43:13.831Z,103538.69
2019-05-13T04:44:23.970Z,103539.65
2019-05-13T04:45:33.032Z,103545.30
2019-05-13T04:46:43.100Z,103544.02
2019-05-13T04:47:48.165Z,103550.14
2019-05-13T04:48:55.940Z,103544.59
2019-05-13T04:50:03.567Z,103548.78
2019-05-13T04:51:13.630Z,103547.30
2019-05-13T04:52:22.244Z,103549.30
2019-05-13T04:53:33.309Z,103544.94
2019-05-13T04:54:39.154Z,103541.34
2019-05-13T04:55:47.085Z,103539.83
2019-05-13T04:56:54.006Z,103546.98
2019-05-13T04:58:03.526Z,103543.45
2019-05-13T04:59:12.504Z,103549.83
2019-05-13T05:00:42.913Z,103551.75
2019-05-13T05:02:49.877Z,103555.11
2019-05-13T05:04:22.587Z,103554.16
2019-05-13T05:06:05.913Z,103560.02
2019-05-13T05:07:41.842Z,103560.43
2019-05-13T05:09:25.911Z,103561.41
2019-05-13T05:11:16.452Z,103564.58
2019-05-13T05:13:23.718Z,103560.97
2019-05-13T05:15:33.414Z,103568.97
2019-05-13T05:17:43.191Z,103568.44
2019-05-13T05:19:32.954Z,103569.95
2019-05-13T05:21:06.432Z,103569.06
2019-05-13T05:22:38.889Z,103563.72
2019-05-13T05:24:42.456Z,103561.66
2019-05-13T05:27:08.633Z,103568.23
2019-05-13T05:29:34.499Z,103566.33
2019-05-13T05:31:35.985Z,103564.90
2019-05-13T05:34:06.223Z,103565.70
2019-05-13T05:36:07.725Z,103575.84
2019-05-13T05:38:16.123Z,103573.58
2019-05-13T05:39:28.631Z,103571.05
2019-05-13T05:40:37.809Z,103578.69
2019-05-13T05:41:51.339Z,103576.13
2019-05-13T05:43:02.429Z,103575.05
2019-05-13T05:44:13.852Z,103578.77
2019-05-13T05:45:22.108Z,103578.94
2019-05-13T05:46:32.484Z,103579.13
2019-05-13T05:47:42.751Z,103584.81
2019-05-13T05:48:53.745Z,103582.26
2019-05-13T05:50:03.068Z,103582.86
2019-05-13T05:51:14.454Z,103586.82
2019-05-13T05:52:24.467Z,103588.52
2019-05-13T05:53:33.659Z,103583.91
2019-05-13T05:54:42.206Z,103590.40
2019-05-13T05:55:54.924Z,103587.48
2019-05-13T05:57:05.511Z,103588.98
2019-05-13T05:58:16.095Z,103592.57
2019-05-13T05:59:26.267Z,103588.91
2019-05-13T06:00:36.649Z,103592.00
2019-05-13T06:01:47.955Z,103587.00
2019-05-13T06:02:57.910Z,103588.23
2019-05-13T06:04:04.726Z,103583.59
2019-05-13T06:05:12.663Z,103586.90
2019-05-13T06:06:23.239Z,103594.79
2019-05-13T06:07:32.994Z,103588.45
2019-05-13T06:08:41.353Z,103589.73
2019-05-13T06:09:51.435Z,103590.70
2019-05-13T06:10:57.831Z,103589.42
2019-05-13T06:12:05.520Z,103591.06
2019-05-13T06:13:13.046Z,103587.39
2019-05-13T06:14:21.900Z,103593.52
2019-05-13T06:15:31.449Z,103591.12
2019-05-13T06:16:39.497Z,103594.22
2019-05-13T06:17:46.729Z,103593.27
2019-05-13T06:18:54.523Z,103593.95
2019-05-13T06:20:03.728Z,103590.59
2019-05-13T06:21:12.301Z,103597.84
2019-05-13T06:22:21.456Z,103590.17
2019-05-13T06:23:31.265Z,103589.02
2019-05-13T06:24:38.110Z,103591.25
2019-05-13T06:25:45.677Z,103591.07
2019-05-13T06:26:53.076Z,103583.36
2019-05-13T06:28:01.845Z,103583.63
2019-05-13T06:29:11.687Z,103585.16
2019-05-13T06:30:21.544Z,103586.38
2019-05-13T06:31:27.843Z,103582.35
2019-05-13T06:32:37.259Z,103586.19
2019-05-13T06:33:44.462Z,103584.27
2019-05-13T06:34:52.714Z,103586.92
2019-05-13T06:36:01.207Z,103588.78
2019-05-13T06:37:11.479Z,103583.83
2019-05-13T06:38:17.866Z,103589.88
2019-05-13T06:39:25.469Z,103585.73
2019-05-13T06:40:32.695Z,103587.06
2019-05-13T06:41:41.702Z,103590.52
2019-05-13T06:42:48.883Z,103586.83
2019-05-13T06:43:56.377Z,103575.33
2019-05-13T06:45:03.846Z,103580.11
2019-05-13T06:46:12.339Z,103583.48
2019-05-13T06:47:21.758Z,103582.25
2019-05-13T06:48:29.054Z,103583.62
2019-05-13T06:49:36.105Z,103588.03
2019-05-13T06:50:43.926Z,103583.96
2019-05-13T06:51:52.703Z,103586.19
2019-05-13T06:53:02.110Z,103589.31
2019-05-13T06:54:11.107Z,103585.96
2019-05-13T06:55:18.220Z,103586.09
2019-05-13T06:56:24.973Z,103583.97
2019-05-13T06:57:32.477Z,103583.97
2019-05-13T06:58:41.534Z,103587.95
2019-05-13T06:59:48.859Z,103589.23
2019-05-13T07:00:57.973Z,103591.17
2019-05-13T07:02:05.330Z,103585.67
2019-05-13T07:03:12.908Z,103583.69
2019-05-13T07:04:21.878Z,103587.09
2019-05-13T07:05:31.643Z,103582.83
2019-05-13T07:06:38.498Z,103590.08
2019-05-13T07:07:45.269Z,103587.57
2019-05-13T07:08:52.769Z,103588.94
2019-05-13T07:10:02.235Z,103589.18
2019-05-13T07:11:20.461Z,103595.05
2019-05-13T07:12:17.783Z,103597.62
2019-05-13T07:13:25.573Z,103593.02
2019-05-13T07:14:32.700Z,103597.04
2019-05-13T07:15:41.747Z,103595.89
2019-05-13T07:16:49.483Z,103602.14
2019-05-13T07:17:57.272Z,103600.99
2019-05-13T07:19:04.035Z,103604.20
2019-05-13T07:20:12.266Z,103603.94
2019-05-13T07:21:21.567Z,103602.92
2019-05-13T07:22:31.945Z,103604.20
2019-05-13T07:23:37.283Z,103605.95
2019-05-13T07:24:45.844Z,103605.56
2019-05-13T07:25:52.837Z,103601.00
2019-05-13T07:27:01.883Z,103608.77
2019-05-13T07:28:09.166Z,103610.26
2019-05-13T07:29:17.215Z,103601.17
2019-05-13T07:30:43.240Z,103613.50
2019-05-13T07:31:52.271Z,103605.56
2019-05-13T07:33:01.729Z,103609.15
2019-05-13T07:34:11.422Z,103606.25
2019-05-13T07:35:18.451Z,103614.52
2019-05-13T07:36:26.306Z,103609.86
2019-05-13T07:37:33.967Z,103609.14
2019-05-13T07:38:42.068Z,103610.11
2019-05-13T07:39:49.507Z,103605.03
2019-05-13T07:41:04.789Z,103610.31
2019-05-13T07:42:12.457Z,103613.22
2019-05-13T07:43:21.479Z,103607.80
2019-05-13T07:44:32.159Z,103616.30
2019-05-13T07:45:39.052Z,103608.26
2019-05-13T07:46:45.875Z,103611.83
2019-05-13T07:47:53.770Z,103616.95
2019-05-13T07:49:02.167Z,103612.53
2019-05-13T07:50:12.766Z,103612.45
2019-05-13T07:51:19.035Z,103607.44
2019-05-13T07:52:26.903Z,103605.12
2019-05-13T07:53:34.055Z,103606.31
2019-05-13T07:54:42.140Z,103612.26
2019-05-13T07:55:49.023Z,103609.34
2019-05-13T07:56:56.508Z,103610.62
2019-05-13T07:58:03.666Z,103616.14
2019-05-13T07:59:12.386Z,103614.47
2019-05-13T08:00:21.755Z,103614.00
2019-05-13T08:01:29.224Z,103613.61
2019-05-13T08:02:36.088Z,103605.64
2019-05-13T08:03:43.594Z,103606.50
2019-05-13T08:04:52.987Z,103609.56
2019-05-13T08:06:01.996Z,103604.04
2019-05-13T08:07:08.347Z,103614.98
2019-05-13T08:08:16.203Z,103611.67
2019-05-13T08:09:23.272Z,103611.84
2019-05-13T08:10:31.993Z,103610.34
2019-05-13T08:11:56.461Z,103609.91
2019-05-13T08:12:48.597Z,103610.80
2019-05-13T08:13:55.422Z,103607.97
2019-05-13T08:15:03.507Z,103615.28
2019-05-13T08:16:12.372Z,103617.98
2019-05-13T08:17:22.483Z,103611.59
2019-05-13T08:18:31.871Z,103615.84
2019-05-13T08:19:41.236Z,103609.13
2019-05-13T08:20:48.272Z,103619.03
2019-05-13T08:21:55.770Z,103616.59
2019-05-13T08:23:02.913Z,103615.27
2019-05-13T08:24:11.981Z,103613.11
2019-05-13T08:25:19.002Z,103612.83
2019-05-13T08:26:26.990Z,103608.67
2019-05-13T08:27:35.144Z,103611.42
2019-05-13T08:28:56.943Z,103612.43
2019-05-13T08:29:52.187Z,103610.72
2019-05-13T08:31:02.078Z,103611.27
2019-05-13T08:32:08.659Z,103615.58
2019-05-13T08:33:16.836Z,103618.63
2019-05-13T08:34:24.089Z,103610.58
2019-05-13T08:35:31.992Z,103610.55
2019-05-13T08:36:39.722Z,103617.86
2019-05-13T08:37:48.658Z,103612.73
2019-05-13T08:38:55.418Z,103615.80
2019-05-13T08:40:02.910Z,103617.48
2019-05-13T08:41:18.809Z,103613.25
2019-05-13T08:42:23.333Z,103614.65
2019-05-13T08:43:31.465Z,103619.25
2019-05-13T08:44:38.457Z,103614.88
2019-05-13T08:45:45.370Z,103616.20
2019-05-13T08:46:53.889Z,103615.95
2019-05-13T08:48:02.058Z,103617.38
2019-05-13T08:49:11.860Z,103611.91
2019-05-13T08:50:18.645Z,103613.82
2019-05-13T08:51:26.141Z,103617.83
2019-05-13T08:52:34.646Z,103623.02
2019-05-13T08:53:42.670Z,103612.31
2019-05-13T08:54:52.309Z,103611.42
2019-05-13T08:56:01.482Z,103614.07
2019-05-13T08:57:07.638Z,103615.02
2019-05-13T08:58:15.209Z,103617.09
2019-05-13T08:59:22.305Z,103611.92
2019-05-13T09:00:53.552Z,103612.70
2019-05-13T09:02:03.147Z,103623.86
2019-05-13T09:03:12.041Z,103613.25
2019-05-13T09:04:18.187Z,103617.63
2019-05-13T09:05:25.718Z,103609.91
2019-05-13T09:06:32.666Z,103612.66
2019-05-13T09:07:41.295Z,103618.73
2019-05-13T09:08:48.293Z,103613.13
2019-05-13T09:09:55.918Z,103616.19
2019-05-13T09:11:03.011Z,103613.61
2019-05-13T09:12:11.626Z,103616.55
2019-05-13T09:13:18.707Z,103615.77
2019-05-13T09:14:26.368Z,103612.38
2019-05-13T09:15:35.237Z,103615.84
2019-05-13T09:16:43.526Z,103612.50
2019-05-13T09:17:51.714Z,103613.88
2019-05-13T09:19:03.405Z,103613.98
2019-05-13T09:20:11.351Z,103613.67
2019-05-13T09:21:18.177Z,103617.20
2019-05-13T09:22:24.926Z,103620.24
2019-05-13T09:23:32.870Z,103622.88
2019-05-13T09:24:42.278Z,103620.39
2019-05-13T09:25:49.033Z,103622.88
2019-05-13T09:26:56.250Z,103630.00
2019-05-13T09:28:04.807Z,103621.91
2019-05-13T09:29:12.057Z,103624.47
2019-05-13T09:30:22.215Z,103627.13
2019-05-13T09:31:28.406Z,103627.58
2019-05-13T09:32:36.304Z,103628.02
2019-05-13T09:33:43.505Z,103622.86
2019-05-13T09:34:52.455Z,103610.04
2019-05-13T09:36:02.125Z,103626.84
2019-05-13T09:37:11.695Z,103622.96
2019-05-13T09:38:18.047Z,103619.89
2019-05-13T09:39:25.529Z,103619.03
2019-05-13T09:40:32.767Z,103614.39
2019-05-13T09:41:43.676Z,103615.74
2019-05-13T09:42:52.860Z,103616.23
2019-05-13T09:43:58.426Z,103611.09
2019-05-13T09:45:05.449Z,103612.02
2019-05-13T09:46:13.579Z,103620.29
2019-05-13T09:47:21.703Z,103612.89
2019-05-13T09:48:31.720Z,103611.19
2019-05-13T09:49:37.866Z,103612.03
2019-05-13T09:50:45.771Z,103615.03
2019-05-13T09:51:52.955Z,103613.41
2019-05-13T09:53:02.693Z,103604.85
2019-05-13T09:54:11.598Z,103610.02
2019-05-13T09:55:26.485Z,103609.48
2019-05-13T09:56:27.756Z,103608.09
2019-05-13T09:57:35.252Z,103608.48
2019-05-13T09:58:42.280Z,103609.75
2019-05-13T09:59:52.243Z,103612.33
2019-05-13T10:00:58.629Z,103603.40
2019-05-13T10:02:06.486Z,103606.88
2019-05-13T10:03:14.275Z,103604.82
2019-05-13T10:04:22.598Z,103606.56
2019-05-13T10:05:31.694Z,103601.83
2019-05-13T10:06:38.734Z,103603.81
2019-05-13T10:07:45.709Z,103602.92
2019-05-13T10:08:53.293Z,103604.16
2019-05-13T10:10:01.744Z,103599.48
2019-05-13T10:11:12.004Z,103605.09
2019-05-13T10:12:18.399Z,103603.41
2019-05-13T10:13:26.156Z,103600.47
2019-05-13T10:14:33.238Z,103599.23
2019-05-13T10:15:42.071Z,103598.83
2019-05-13T10:16:51.502Z,103599.29
2019-05-13T10:18:01.142Z,103592.86
2019-05-13T10:19:07.814Z,103609.54
2019-05-13T10:20:17.620Z,103596.16
2019-05-13T10:21:24.431Z,103598.41
2019-05-13T10:22:32.641Z,103591.10
2019-05-13T10:23:41.839Z,103585.55
2019-05-13T10:24:51.459Z,103590.42
2019-05-13T10:26:03.492Z,103583.55
2019-05-13T10:27:12.341Z,103596.05
2019-05-13T10:28:21.891Z,103591.77
2019-05-13T10:29:31.703Z,103591.70
2019-05-13T10:30:38.566Z,103595.98
2019-05-13T10:31:46.774Z,103593.01
2019-05-13T10:32:53.735Z,103601.67
2019-05-13T10:34:02.388Z,103595.27
2019-05-13T10:35:09.834Z,103603.01
2019-05-13T10:36:17.957Z,103595.21
2019-05-13T10:37:25.209Z,103594.38
2019-05-13T10:38:32.960Z,103592.22
2019-05-13T10:39:39.768Z,103590.14
2019-05-13T10:40:48.008Z,103588.02
2019-05-13T10:41:55.078Z,103597.99
2019-05-13T10:43:02.883Z,103592.77
2019-05-13T10:44:12.062Z,103595.73
2019-05-13T10:45:22.160Z,103599.47
2019-05-13T10:46:28.005Z,103586.51
2019-05-13T10:47:36.554Z,103594.70
2019-05-13T10:48:43.591Z,103590.47
2019-05-13T10:49:52.316Z,103587.05
2019-05-13T10:50:59.406Z,103584.92
2019-05-13T10:52:08.063Z,103589.66
2019-05-13T10:53:15.251Z,103581.06
2019-05-13T10:54:23.194Z,103587.11
2019-05-13T10:55:32.406Z,103585.45
2019-05-13T10:56:39.504Z,103579.89
2019-05-13T10:57:46.252Z,103588.52
2019-05-13T10:58:53.804Z,103580.80
2019-05-13T11:00:03.419Z,103572.62
2019-05-13T11:01:11.639Z,103577.86
2019-05-13T11:02:21.971Z,103586.85
2019-05-13T11:03:28.417Z,103576.11
2019-05-13T11:04:35.167Z,103578.70
2019-05-13T11:05:44.749Z,103575.23
2019-05-13T11:06:52.414Z,103573.59
2019-05-13T11:08:02.013Z,103579.55
2019-05-13T11:09:12.970Z,103577.77
2019-05-13T11:10:32.521Z,103574.73
2019-05-13T11:11:41.360Z,103578.65
2019-05-13T11:12:51.679Z,103582.52
2019-05-13T11:14:06.695Z,103576.08
2019-05-13T11:15:08.250Z,103573.95
2019-05-13T11:16:15.349Z,103564.53
2019-05-13T11:17:30.630Z,103558.93
2019-05-13T11:18:31.864Z,103562.84
2019-05-13T11:19:39.642Z,103559.86
2019-05-13T11:20:47.385Z,103554.23
2019-05-13T11:21:54.899Z,103555.97
2019-05-13T11:23:02.455Z,103551.66
2019-05-13T11:24:12.743Z,103556.83
2019-05-13T11:25:21.490Z,103549.09
2019-05-13T11:26:28.470Z,103550.80
2019-05-13T11:27:35.576Z,103548.63
2019-05-13T11:28:43.162Z,103560.70
2019-05-13T11:29:52.387Z,103554.25
2019-05-13T11:30:59.990Z,103560.26
2019-05-13T11:32:07.610Z,103547.77
2019-05-13T11:33:15.679Z,103547.77
2019-05-13T11:34:22.579Z,103545.56
2019-05-13T11:35:32.013Z,103541.23
2019-05-13T11:36:42.679Z,103542.60
2019-05-13T11:37:48.414Z,103544.77
2019-05-13T11:38:55.939Z,103536.58
2019-05-13T11:40:03.439Z,103539.18
2019-05-13T11:41:11.793Z,103541.34
2019-05-13T11:42:22.653Z,103531.84
2019-05-13T11:43:28.886Z,103533.56
2019-05-13T11:44:37.031Z,103533.13
2019-05-13T11:45:44.412Z,103529.27
2019-05-13T11:46:52.997Z,103533.97
2019-05-13T11:49:11.917Z,103524.48
2019-05-13T11:50:22.383Z,103533.53
2019-05-13T11:51:32.017Z,103523.64
2019-05-13T11:52:41.735Z,103525.80
2019-05-13T11:53:48.970Z,103522.34
2019-05-13T11:54:55.728Z,103523.63
2019-05-13T11:56:03.993Z,103520.20
2019-05-13T11:57:12.361Z,103521.91
2019-05-13T11:58:20.393Z,103521.06
2019-05-13T11:59:27.164Z,103520.61
2019-05-13T12:01:03.246Z,103521.47
2019-05-13T12:02:13.435Z,103518.02
2019-05-13T12:03:23.144Z,103521.03
2019-05-13T12:04:33.065Z,103513.31
2019-05-13T12:05:41.616Z,103511.15
2019-05-13T12:06:49.234Z,103509.89
2019-05-13T12:07:57.636Z,103498.27
2019-05-13T12:09:06.078Z,103499.98
2019-05-13T12:10:14.569Z,103502.98
2019-05-13T12:11:22.391Z,103502.94
2019-05-13T12:13:38.988Z,103504.61
2019-05-13T12:15:16.170Z,103503.28
2019-05-13T12:15:55.414Z,103500.69
2019-05-13T12:17:03.000Z,103501.95
2019-05-13T12:18:12.694Z,103494.59
2019-05-13T12:19:21.436Z,103494.55
2019-05-13T12:20:27.975Z,103482.38
2019-05-13T12:21:41.981Z,103493.97
2019-05-13T12:22:44.428Z,103495.84
2019-05-13T12:23:52.682Z,103498.51
2019-05-13T12:25:02.049Z,103499.77
2019-05-13T12:26:12.715Z,103507.93
2019-05-13T12:27:18.288Z,103504.48
2019-05-13T12:28:26.451Z,103498.07
2019-05-13T12:29:33.291Z,103493.38
2019-05-13T12:30:41.795Z,103501.58
2019-05-13T12:31:48.719Z,103496.05
2019-05-13T12:32:57.429Z,103495.62
2019-05-13T12:34:04.839Z,103495.17
2019-05-13T12:35:13.462Z,103500.73
2019-05-13T12:36:23.465Z,103492.56
2019-05-13T12:37:33.450Z,103491.67
2019-05-13T12:38:54.566Z,103485.62
2019-05-13T12:40:03.383Z,103488.64
2019-05-13T12:41:12.900Z,103483.02
2019-05-13T12:42:22.778Z,103491.67
2019-05-13T12:43:31.449Z,103483.11
2019-05-13T12:44:59.740Z,103478.39
2019-05-13T12:45:48.205Z,103473.19
2019-05-13T12:46:56.059Z,103485.65
2019-05-13T12:48:03.441Z,103480.48
2019-05-13T12:49:14.346Z,103480.03
2019-05-13T12:50:23.692Z,103483.91
2019-05-13T12:51:32.497Z,103473.97
2019-05-13T12:52:39.050Z,103482.58
2019-05-13T12:53:47.026Z,103479.95
2019-05-13T12:54:53.781Z,103469.15
2019-05-13T12:56:03.355Z,103476.46
2019-05-13T12:57:13.188Z,103470.89
2019-05-13T12:58:18.927Z,103471.78
2019-05-13T12:59:25.708Z,103462.28
2019-05-13T13:00:33.208Z,103467.01
2019-05-13T13:01:40.131Z,103470.89
2019-05-13T13:02:51.569Z,103465.80
2019-05-13T13:03:56.468Z,103458.89
2019-05-13T13:05:12.993Z,103460.19
2019-05-13T13:06:31.167Z,103461.03
2019-05-13T13:07:23.137Z,103472.27
2019-05-13T13:08:43.020Z,103464.06
2019-05-13T13:09:42.585Z,103467.54
2019-05-13T13:10:48.280Z,103460.19
2019-05-13T13:11:56.491Z,103461.06
2019-05-13T13:13:03.705Z,103465.30
2019-05-13T13:14:15.096Z,103464.82
2019-05-13T13:15:37.340Z,103470.44
2019-05-13T13:16:34.289Z,103463.17
2019-05-13T13:17:37.779Z,103462.36
2019-05-13T13:18:45.354Z,103453.75
2019-05-13T13:19:54.821Z,103446.84